createdAt,value
2023-03-29T04:43:45.695Z,86.70
2023-03-29T04:46:25.776Z,86.96
2023-03-29T04:49:11.950Z,87.38
2023-03-29T04:51:41.812Z,87.35
2023-03-29T04:54:13.201Z,87.40
2023-03-29T04:57:00.237Z,87.18
2023-03-29T04:59:41.843Z,87.06
2023-03-29T05:02:17.236Z,87.31
2023-03-29T05:04:46.249Z,87.19
2023-03-29T05:07:17.599Z,87.99
2023-03-29T05:09:45.042Z,87.98
2023-03-29T05:12:11.970Z,87.80
2023-03-29T05:14:56.257Z,87.85
2023-03-29T05:17:26.738Z,87.47
2023-03-29T05:19:55.560Z,87.08
2023-03-29T05:22:30.866Z,87.08
2023-03-29T05:24:58.734Z,87.72
2023-03-29T05:27:27.640Z,87.89
2023-03-29T05:30:04.064Z,86.91
2023-03-29T05:32:41.027Z,86.50
2023-03-29T05:35:08.407Z,86.61
2023-03-29T05:37:35.144Z,86.52
2023-03-29T05:40:09.515Z,86.14
2023-03-29T05:42:50.640Z,86.67
2023-03-29T05:45:17.382Z,87.17
2023-03-29T05:47:44.809Z,86.73
2023-03-29T05:50:11.545Z,86.90
2023-03-29T05:52:40.529Z,86.38
2023-03-29T05:55:07.646Z,86.63
2023-03-29T05:57:35.015Z,86.96
2023-03-29T06:00:16.149Z,87.87
2023-03-29T06:02:43.261Z,87.23
2023-03-29T06:05:10.202Z,86.61
2023-03-29T06:07:54.076Z,87.07
2023-03-29T06:10:37.034Z,86.63
2023-03-29T06:13:42.497Z,87.06
2023-03-29T06:16:10.222Z,87.67
2023-03-29T06:18:39.573Z,88.13
2023-03-29T06:21:10.762Z,88.43
2023-03-29T06:23:38.915Z,88.32
2023-03-29T06:26:06.928Z,88.39
2023-03-29T06:28:35.243Z,86.55
2023-03-29T06:31:04.088Z,85.67
2023-03-29T06:33:37.165Z,85.62
2023-03-29T06:36:16.224Z,86.16
2023-03-29T06:38:47.849Z,86.36
2023-03-29T06:41:38.406Z,85.92
2023-03-29T06:44:08.278Z,85.72
2023-03-29T06:46:38.359Z,85.41
2023-03-29T06:49:07.105Z,85.27
2023-03-29T06:51:41.653Z,84.48
2023-03-29T06:54:08.701Z,84.46
2023-03-29T06:56:41.372Z,84.54
2023-03-29T06:59:13.637Z,83.06
2023-03-29T07:01:55.258Z,82.40
2023-03-29T07:04:36.659Z,82.68
2023-03-29T07:07:19.552Z,80.68
2023-03-29T07:09:53.580Z,80.92
2023-03-29T07:12:26.479Z,79.77
2023-03-29T07:14:57.854Z,80.22
2023-03-29T07:17:27.744Z,80.09
2023-03-29T07:19:54.790Z,78.23
2023-03-29T07:22:44.597Z,78.90
2023-03-29T07:25:13.207Z,78.30
2023-03-29T07:27:42.092Z,78.65
2023-03-29T07:30:10.427Z,77.44
2023-03-29T07:32:39.980Z,77.10
2023-03-29T07:35:26.038Z,77.07
2023-03-29T07:38:13.872Z,76.20
2023-03-29T07:40:41.106Z,75.67
2023-03-29T07:43:26.269Z,74.96
2023-03-29T07:45:53.094Z,74.77
2023-03-29T07:48:19.968Z,74.54
2023-03-29T07:50:57.564Z,74.85
2023-03-29T07:53:29.825Z,74.78
2023-03-29T07:55:57.405Z,75.66
2023-03-29T07:58:54.113Z,75.75
2023-03-29T08:01:21.097Z,75.38
2023-03-29T08:04:13.892Z,74.05
2023-03-29T08:07:09.663Z,73.67
2023-03-29T08:09:56.851Z,74.00
2023-03-29T08:12:32.717Z,75.15
2023-03-29T08:15:00.291Z,75.56
2023-03-29T08:17:32.149Z,74.81
2023-03-29T08:19:59.200Z,75.19
2023-03-29T08:22:25.988Z,75.33
2023-03-29T08:25:16.324Z,75.82
2023-03-29T08:27:46.100Z,74.87
2023-03-29T08:30:14.893Z,73.90
2023-03-29T08:35:11.216Z,74.86
2023-03-29T08:38:01.197Z,74.42
2023-03-29T08:40:29.494Z,73.23
2023-03-29T08:42:56.124Z,73.64
2023-03-29T08:45:33.252Z,73.94
2023-03-29T08:48:20.566Z,74.82
2023-03-29T08:51:02.284Z,73.03
2023-03-29T08:53:33.636Z,72.39
2023-03-29T08:56:16.162Z,72.19
2023-03-29T08:59:25.281Z,71.44
2023-03-29T09:01:53.306Z,72.03
2023-03-29T09:04:22.203Z,70.57
2023-03-29T09:06:55.270Z,70.95
2023-03-29T09:09:26.141Z,71.38
2023-03-29T09:11:53.160Z,71.79
2023-03-29T09:14:32.044Z,71.18
2023-03-29T09:16:58.962Z,71.27
2023-03-29T09:19:26.150Z,71.13
2023-03-29T09:22:00.608Z,70.87
2023-03-29T09:24:27.533Z,71.59
2023-03-29T09:27:10.936Z,70.41
2023-03-29T09:29:56.175Z,70.95
2023-03-29T09:32:32.446Z,70.07
2023-03-29T09:35:18.753Z,69.77
2023-03-29T09:37:45.939Z,70.34
2023-03-29T09:40:15.085Z,71.46
2023-03-29T09:42:58.438Z,70.21
2023-03-29T09:45:25.142Z,70.05
2023-03-29T09:48:04.644Z,69.34
2023-03-29T09:50:36.248Z,70.33
2023-03-29T09:53:05.694Z,70.32
2023-03-29T09:55:38.908Z,70.02
2023-03-29T09:58:12.305Z,69.66
2023-03-29T10:00:39.570Z,68.53
2023-03-29T10:03:10.049Z,68.38
2023-03-29T10:05:45.734Z,69.94
2023-03-29T10:08:35.229Z,71.34
2023-03-29T10:11:03.739Z,68.94
2023-03-29T10:13:31.045Z,69.30
2023-03-29T10:15:57.660Z,68.62
2023-03-29T10:18:27.102Z,68.38
2023-03-29T10:20:57.322Z,68.23
2023-03-29T10:23:23.967Z,69.04
2023-03-29T10:25:51.308Z,70.66
2023-03-29T10:28:17.952Z,69.27
2023-03-29T10:30:45.207Z,68.24
2023-03-29T10:33:15.645Z,68.02
2023-03-29T10:35:42.327Z,68.42
2023-03-29T10:38:09.915Z,68.12
2023-03-29T10:40:41.160Z,68.05
2023-03-29T10:43:16.612Z,68.14
2023-03-29T10:45:43.654Z,69.10
2023-03-29T10:48:14.204Z,69.27
2023-03-29T10:50:40.996Z,67.98
2023-03-29T10:53:15.321Z,68.01
2023-03-29T10:55:46.644Z,68.02
2023-03-29T10:58:16.099Z,69.14
2023-03-29T11:00:46.435Z,69.67
2023-03-29T11:03:23.555Z,70.16
2023-03-29T11:05:59.752Z,68.88
2023-03-29T11:08:38.521Z,68.56
2023-03-29T11:11:08.884Z,68.98
2023-03-29T11:13:47.105Z,69.58
2023-03-29T11:16:17.284Z,68.66
2023-03-29T11:18:44.364Z,69.37
2023-03-29T11:21:26.645Z,68.82
2023-03-29T11:24:12.304Z,68.35
2023-03-29T11:26:38.919Z,68.50
2023-03-29T11:29:08.741Z,67.14
2023-03-29T11:31:44.617Z,66.94
2023-03-29T11:34:24.127Z,67.42
2023-03-29T11:36:53.188Z,67.99
2023-03-29T11:39:20.084Z,68.51
2023-03-29T11:41:48.608Z,70.07
2023-03-29T11:44:22.104Z,70.12
2023-03-29T11:46:49.272Z,69.67
2023-03-29T11:49:23.406Z,69.67
2023-03-29T11:51:53.915Z,69.55
2023-03-29T11:54:25.034Z,70.48
2023-03-29T11:56:56.570Z,68.93
2023-03-29T11:59:37.174Z,69.69
2023-03-29T12:02:03.839Z,69.81
2023-03-29T12:04:36.593Z,69.72
2023-03-29T12:07:09.436Z,68.88
2023-03-29T12:09:44.197Z,69.42
2023-03-29T12:12:17.643Z,69.54
2023-03-29T12:14:44.312Z,69.54
2023-03-29T12:17:12.005Z,70.68
2023-03-29T12:19:43.341Z,70.36
2023-03-29T12:22:10.391Z,70.30
2023-03-29T12:24:41.463Z,70.49
2023-03-29T12:27:08.507Z,69.80
2023-03-29T12:29:47.821Z,69.09
2023-03-29T12:32:33.385Z,69.82
2023-03-29T12:35:28.967Z,69.57
2023-03-29T12:38:25.237Z,69.45
2023-03-29T12:41:21.172Z,70.57
